sensor_id;sensor_type;location;lat;lon;timestamp;P1;durP1;ratioP1;P2;durP2;ratioP2
1412;SDS011;701;52.526;13.408;2023-07-29T00:01:33;10.57;;;5.32;;
1412;SDS011;701;52.526;13.408;2023-07-29T00:03:59;10.30;;;5.50;;
1412;SDS011;701;52.526;13.408;2023-07-29T00:06:25;8.87;;;5.30;;
1412;SDS011;701;52.526;13.408;2023-07-29T00:08:51;11.02;;;5.28;;
1412;SDS011;701;52.526;13.408;2023-07-29T00:11:17;11.20;;;5.43;;
1412;SDS011;701;52.526;13.408;2023-07-29T00:13:43;10.53;;;5.73;;
1412;SDS011;701;52.526;13.408;2023-07-29T00:16:09;10.30;;;5.60;;
1412;SDS011;701;52.526;13.408;2023-07-29T00:18:35;11.02;;;5.68;;
1412;SDS011;701;52.526;13.408;2023-07-29T00:21:01;10.80;;;5.90;;
1412;SDS011;701;52.526;13.408;2023-07-29T00:23:27;10.48;;;6.03;;
1412;SDS011;701;52.526;13.408;2023-07-29T00:25:53;11.50;;;6.20;;
1412;SDS011;701;52.526;13.408;2023-07-29T00:28:18;12.87;;;6.33;;
1412;SDS011;701;52.526;13.408;2023-07-29T00:30:44;10.52;;;6.25;;
1412;SDS011;701;52.526;13.408;2023-07-29T00:33:10;12.70;;;6.60;;
1412;SDS011;701;52.526;13.408;2023-07-29T00:35:37;12.18;;;6.25;;
1412;SDS011;701;52.526;13.408;2023-07-29T00:38:03;12.40;;;6.38;;
1412;SDS011;701;52.526;13.408;2023-07-29T00:40:28;12.43;;;6.77;;
1412;SDS011;701;52.526;13.408;2023-07-29T00:42:55;13.05;;;6.05;;
1412;SDS011;701;52.526;13.408;2023-07-29T00:45:21;11.73;;;6.53;;
1412;SDS011;701;52.526;13.408;2023-07-29T00:47:50;10.23;;;5.93;;
1412;SDS011;701;52.526;13.408;2023-07-29T00:50:16;12.65;;;6.47;;
1412;SDS011;701;52.526;13.408;2023-07-29T00:52:42;12.85;;;6.80;;
1412;SDS011;701;52.526;13.408;2023-07-29T00:55:08;11.15;;;6.10;;
1412;SDS011;701;52.526;13.408;2023-07-29T00:57:34;12.27;;;6.20;;
1412;SDS011;701;52.526;13.408;2023-07-29T01:00:00;10.35;;;5.97;;
1412;SDS011;701;52.526;13.408;2023-07-29T01:02:28;11.90;;;6.68;;
1412;SDS011;701;52.526;13.408;2023-07-29T01:04:56;12.55;;;7.10;;
1412;SDS011;701;52.526;13.408;2023-07-29T01:07:29;10.90;;;6.57;;
1412;SDS011;701;52.526;13.408;2023-07-29T01:10:03;11.10;;;6.53;;
1412;SDS011;701;52.526;13.408;2023-07-29T01:12:48;13.48;;;7.00;;
1412;SDS011;701;52.526;13.408;2023-07-29T01:17:52;11.98;;;6.22;;
1412;SDS011;701;52.526;13.408;2023-07-29T01:20:20;13.23;;;6.40;;
1412;SDS011;701;52.526;13.408;2023-07-29T01:22:49;11.15;;;6.32;;
1412;SDS011;701;52.526;13.408;2023-07-29T01:25:16;15.57;;;6.78;;
1412;SDS011;701;52.526;13.408;2023-07-29T01:27:42;13.15;;;6.68;;
1412;SDS011;701;52.526;13.408;2023-07-29T01:30:10;12.57;;;6.53;;
1412;SDS011;701;52.526;13.408;2023-07-29T01:35:41;15.05;;;7.07;;
1412;SDS011;701;52.526;13.408;2023-07-29T01:38:17;11.90;;;6.35;;
1412;SDS011;701;52.526;13.408;2023-07-29T01:40:46;13.23;;;6.75;;
1412;SDS011;701;52.526;13.408;2023-07-29T01:43:14;12.53;;;7.40;;
1412;SDS011;701;52.526;13.408;2023-07-29T01:45:40;12.75;;;6.60;;
1412;SDS011;701;52.526;13.408;2023-07-29T01:48:06;13.68;;;6.93;;
1412;SDS011;701;52.526;13.408;2023-07-29T01:50:32;14.63;;;6.93;;
1412;SDS011;701;52.526;13.408;2023-07-29T01:53:00;11.10;;;6.60;;
1412;SDS011;701;52.526;13.408;2023-07-29T01:55:26;13.80;;;7.47;;
1412;SDS011;701;52.526;13.408;2023-07-29T01:57:53;12.43;;;6.88;;
1412;SDS011;701;52.526;13.408;2023-07-29T02:00:19;13.02;;;7.32;;
1412;SDS011;701;52.526;13.408;2023-07-29T02:02:45;13.32;;;7.25;;
1412;SDS011;701;52.526;13.408;2023-07-29T02:05:11;12.07;;;6.87;;
1412;SDS011;701;52.526;13.408;2023-07-29T02:07:37;13.15;;;7.00;;
1412;SDS011;701;52.526;13.408;2023-07-29T02:10:03;14.68;;;7.65;;
1412;SDS011;701;52.526;13.408;2023-07-29T02:12:29;13.23;;;7.38;;
1412;SDS011;701;52.526;13.408;2023-07-29T02:14:55;14.80;;;7.87;;
1412;SDS011;701;52.526;13.408;2023-07-29T02:17:20;14.57;;;7.80;;
1412;SDS011;701;52.526;13.408;2023-07-29T02:19:46;14.67;;;7.60;;
1412;SDS011;701;52.526;13.408;2023-07-29T02:22:16;14.85;;;7.63;;
1412;SDS011;701;52.526;13.408;2023-07-29T02:24:43;15.77;;;7.65;;
1412;SDS011;701;52.526;13.408;2023-07-29T02:27:09;16.73;;;7.50;;
1412;SDS011;701;52.526;13.408;2023-07-29T02:29:35;16.20;;;7.68;;
1412;SDS011;701;52.526;13.408;2023-07-29T02:32:01;15.70;;;7.63;;
1412;SDS011;701;52.526;13.408;2023-07-29T02:34:27;15.15;;;7.82;;
1412;SDS011;701;52.526;13.408;2023-07-29T02:36:53;13.85;;;7.80;;
1412;SDS011;701;52.526;13.408;2023-07-29T02:39:19;13.53;;;8.13;;
1412;SDS011;701;52.526;13.408;2023-07-29T02:41:45;17.88;;;8.38;;
1412;SDS011;701;52.526;13.408;2023-07-29T02:44:11;14.43;;;8.40;;
1412;SDS011;701;52.526;13.408;2023-07-29T02:46:37;14.33;;;8.23;;
1412;SDS011;701;52.526;13.408;2023-07-29T02:49:03;18.00;;;9.23;;
1412;SDS011;701;52.526;13.408;2023-07-29T02:51:29;17.27;;;9.07;;
1412;SDS011;701;52.526;13.408;2023-07-29T02:53:55;15.73;;;9.07;;
1412;SDS011;701;52.526;13.408;2023-07-29T02:56:21;19.30;;;9.00;;
1412;SDS011;701;52.526;13.408;2023-07-29T02:58:47;17.33;;;8.95;;
1412;SDS011;701;52.526;13.408;2023-07-29T03:01:13;15.90;;;9.63;;
1412;SDS011;701;52.526;13.408;2023-07-29T03:03:39;18.52;;;9.55;;
1412;SDS011;701;52.526;13.408;2023-07-29T03:06:06;16.65;;;9.45;;
1412;SDS011;701;52.526;13.408;2023-07-29T03:08:33;18.45;;;9.10;;
1412;SDS011;701;52.526;13.408;2023-07-29T03:11:04;17.53;;;9.57;;
1412;SDS011;701;52.526;13.408;2023-07-29T03:13:32;16.58;;;9.25;;
1412;SDS011;701;52.526;13.408;2023-07-29T03:16:14;15.13;;;8.48;;
1412;SDS011;701;52.526;13.408;2023-07-29T03:18:46;18.02;;;8.75;;
1412;SDS011;701;52.526;13.408;2023-07-29T03:21:14;14.07;;;8.30;;
1412;SDS011;701;52.526;13.408;2023-07-29T03:23:40;17.27;;;8.93;;
1412;SDS011;701;52.526;13.408;2023-07-29T03:26:06;14.45;;;8.50;;
1412;SDS011;701;52.526;13.408;2023-07-29T03:28:36;14.15;;;8.20;;
1412;SDS011;701;52.526;13.408;2023-07-29T03:31:04;16.07;;;9.40;;
1412;SDS011;701;52.526;13.408;2023-07-29T03:33:30;16.00;;;9.30;;
1412;SDS011;701;52.526;13.408;2023-07-29T03:35:56;15.15;;;8.43;;
1412;SDS011;701;52.526;13.408;2023-07-29T03:38:22;15.53;;;8.57;;
1412;SDS011;701;52.526;13.408;2023-07-29T03:40:48;16.63;;;9.32;;
1412;SDS011;701;52.526;13.408;2023-07-29T03:43:14;16.45;;;8.95;;
1412;SDS011;701;52.526;13.408;2023-07-29T03:45:40;16.23;;;8.47;;
1412;SDS011;701;52.526;13.408;2023-07-29T03:48:05;16.35;;;9.55;;
1412;SDS011;701;52.526;13.408;2023-07-29T03:50:33;16.90;;;9.00;;
1412;SDS011;701;52.526;13.408;2023-07-29T03:53:01;16.55;;;8.88;;
1412;SDS011;701;52.526;13.408;2023-07-29T03:55:28;14.73;;;8.60;;
1412;SDS011;701;52.526;13.408;2023-07-29T03:57:57;14.10;;;8.88;;
1412;SDS011;701;52.526;13.408;2023-07-29T04:00:23;15.85;;;9.18;;
1412;SDS011;701;52.526;13.408;2023-07-29T04:02:49;16.90;;;9.38;;
1412;SDS011;701;52.526;13.408;2023-07-29T04:05:15;19.05;;;10.10;;
1412;SDS011;701;52.526;13.408;2023-07-29T04:07:41;17.37;;;9.43;;
1412;SDS011;701;52.526;13.408;2023-07-29T04:10:07;17.92;;;8.70;;
1412;SDS011;701;52.526;13.408;2023-07-29T04:12:33;14.93;;;8.93;;
1412;SDS011;701;52.526;13.408;2023-07-29T04:14:59;15.10;;;9.33;;
1412;SDS011;701;52.526;13.408;2023-07-29T04:17:25;16.65;;;9.95;;
1412;SDS011;701;52.526;13.408;2023-07-29T04:19:51;18.00;;;9.57;;
1412;SDS011;701;52.526;13.408;2023-07-29T04:22:18;15.10;;;9.20;;
1412;SDS011;701;52.526;13.408;2023-07-29T04:24:44;16.50;;;9.30;;
1412;SDS011;701;52.526;13.408;2023-07-29T04:27:10;15.80;;;9.07;;
1412;SDS011;701;52.526;13.408;2023-07-29T04:29:36;17.27;;;9.85;;
1412;SDS011;701;52.526;13.408;2023-07-29T04:32:02;17.02;;;9.43;;
1412;SDS011;701;52.526;13.408;2023-07-29T04:34:28;19.40;;;9.63;;
1412;SDS011;701;52.526;13.408;2023-07-29T04:36:54;18.45;;;9.50;;
1412;SDS011;701;52.526;13.408;2023-07-29T04:39:20;15.68;;;9.15;;
1412;SDS011;701;52.526;13.408;2023-07-29T04:41:46;17.53;;;9.03;;
1412;SDS011;701;52.526;13.408;2023-07-29T04:44:13;15.02;;;8.98;;
1412;SDS011;701;52.526;13.408;2023-07-29T04:46:39;17.35;;;8.77;;
1412;SDS011;701;52.526;13.408;2023-07-29T04:49:05;14.10;;;8.77;;
1412;SDS011;701;52.526;13.408;2023-07-29T04:51:31;14.88;;;7.80;;
1412;SDS011;701;52.526;13.408;2023-07-29T04:53:57;15.30;;;8.00;;
1412;SDS011;701;52.526;13.408;2023-07-29T04:56:23;14.25;;;7.93;;
1412;SDS011;701;52.526;13.408;2023-07-29T04:58:49;13.50;;;7.40;;
1412;SDS011;701;52.526;13.408;2023-07-29T05:01:15;12.98;;;7.70;;
1412;SDS011;701;52.526;13.408;2023-07-29T05:03:41;10.23;;;6.60;;
1412;SDS011;701;52.526;13.408;2023-07-29T05:06:07;10.90;;;6.87;;
1412;SDS011;701;52.526;13.408;2023-07-29T05:08:33;12.15;;;6.18;;
1412;SDS011;701;52.526;13.408;2023-07-29T05:10:59;10.07;;;6.05;;
1412;SDS011;701;52.526;13.408;2023-07-29T05:13:27;12.03;;;5.60;;
1412;SDS011;701;52.526;13.408;2023-07-29T05:15:53;10.48;;;6.13;;
1412;SDS011;701;52.526;13.408;2023-07-29T05:18:19;11.05;;;5.97;;
1412;SDS011;701;52.526;13.408;2023-07-29T05:20:46;9.20;;;5.60;;
1412;SDS011;701;52.526;13.408;2023-07-29T05:23:12;9.97;;;5.67;;
1412;SDS011;701;52.526;13.408;2023-07-29T05:25:38;9.88;;;5.25;;
1412;SDS011;701;52.526;13.408;2023-07-29T05:28:04;9.87;;;5.53;;
1412;SDS011;701;52.526;13.408;2023-07-29T05:30:30;11.23;;;5.40;;
1412;SDS011;701;52.526;13.408;2023-07-29T05:32:58;8.90;;;5.45;;
1412;SDS011;701;52.526;13.408;2023-07-29T05:35:24;8.90;;;5.30;;
1412;SDS011;701;52.526;13.408;2023-07-29T05:37:50;9.57;;;5.20;;
1412;SDS011;701;52.526;13.408;2023-07-29T05:40:16;9.27;;;5.00;;
1412;SDS011;701;52.526;13.408;2023-07-29T05:42:42;8.23;;;5.15;;
1412;SDS011;701;52.526;13.408;2023-07-29T05:45:10;9.45;;;4.72;;
1412;SDS011;701;52.526;13.408;2023-07-29T05:47:36;9.10;;;5.53;;
1412;SDS011;701;52.526;13.408;2023-07-29T05:50:03;9.90;;;5.15;;
1412;SDS011;701;52.526;13.408;2023-07-29T05:52:32;9.95;;;4.68;;
1412;SDS011;701;52.526;13.408;2023-07-29T05:54:58;8.00;;;4.95;;
1412;SDS011;701;52.526;13.408;2023-07-29T05:57:24;8.10;;;4.43;;
1412;SDS011;701;52.526;13.408;2023-07-29T05:59:50;8.57;;;4.23;;
1412;SDS011;701;52.526;13.408;2023-07-29T06:02:15;8.50;;;4.15;;
1412;SDS011;701;52.526;13.408;2023-07-29T06:04:41;9.67;;;4.93;;
1412;SDS011;701;52.526;13.408;2023-07-29T06:07:07;7.88;;;4.70;;
1412;SDS011;701;52.526;13.408;2023-07-29T06:09:34;8.65;;;4.85;;
1412;SDS011;701;52.526;13.408;2023-07-29T06:11:59;8.90;;;4.80;;
1412;SDS011;701;52.526;13.408;2023-07-29T06:14:26;8.32;;;4.65;;
1412;SDS011;701;52.526;13.408;2023-07-29T06:16:51;7.60;;;4.30;;
1412;SDS011;701;52.526;13.408;2023-07-29T06:19:18;9.32;;;4.47;;
1412;SDS011;701;52.526;13.408;2023-07-29T06:21:44;9.20;;;4.70;;
1412;SDS011;701;52.526;13.408;2023-07-29T06:24:10;7.60;;;4.57;;
1412;SDS011;701;52.526;13.408;2023-07-29T06:26:36;10.00;;;4.63;;
1412;SDS011;701;52.526;13.408;2023-07-29T06:29:02;9.65;;;4.82;;
1412;SDS011;701;52.526;13.408;2023-07-29T06:31:27;8.63;;;4.20;;
1412;SDS011;701;52.526;13.408;2023-07-29T06:33:54;8.75;;;4.32;;
1412;SDS011;701;52.526;13.408;2023-07-29T06:36:20;7.57;;;4.20;;
1412;SDS011;701;52.526;13.408;2023-07-29T06:38:46;8.07;;;4.07;;
1412;SDS011;701;52.526;13.408;2023-07-29T06:41:12;8.25;;;4.20;;
1412;SDS011;701;52.526;13.408;2023-07-29T06:43:37;7.90;;;4.00;;
1412;SDS011;701;52.526;13.408;2023-07-29T06:46:03;6.75;;;3.83;;
1412;SDS011;701;52.526;13.408;2023-07-29T06:48:29;10.27;;;3.80;;
1412;SDS011;701;52.526;13.408;2023-07-29T06:50:55;9.03;;;3.20;;
1412;SDS011;701;52.526;13.408;2023-07-29T06:53:25;6.97;;;3.30;;
1412;SDS011;701;52.526;13.408;2023-07-29T06:55:51;6.43;;;3.30;;
1412;SDS011;701;52.526;13.408;2023-07-29T06:58:17;7.60;;;3.90;;
1412;SDS011;701;52.526;13.408;2023-07-29T07:00:43;6.28;;;3.40;;
1412;SDS011;701;52.526;13.408;2023-07-29T07:03:09;7.93;;;4.10;;
1412;SDS011;701;52.526;13.408;2023-07-29T07:05:35;9.30;;;3.30;;
1412;SDS011;701;52.526;13.408;2023-07-29T07:08:00;5.78;;;3.13;;
1412;SDS011;701;52.526;13.408;2023-07-29T07:10:26;7.33;;;3.67;;
1412;SDS011;701;52.526;13.408;2023-07-29T07:12:52;7.28;;;3.42;;
1412;SDS011;701;52.526;13.408;2023-07-29T07:15:17;6.53;;;3.10;;
1412;SDS011;701;52.526;13.408;2023-07-29T07:17:43;5.90;;;3.38;;
1412;SDS011;701;52.526;13.408;2023-07-29T07:20:09;8.38;;;3.63;;
1412;SDS011;701;52.526;13.408;2023-07-29T07:22:35;6.90;;;3.20;;
1412;SDS011;701;52.526;13.408;2023-07-29T07:25:01;8.68;;;3.40;;
1412;SDS011;701;52.526;13.408;2023-07-29T07:27:27;7.10;;;3.55;;
1412;SDS011;701;52.526;13.408;2023-07-29T07:29:53;5.53;;;2.70;;
1412;SDS011;701;52.526;13.408;2023-07-29T07:32:18;10.93;;;3.65;;
1412;SDS011;701;52.526;13.408;2023-07-29T07:34:44;6.00;;;3.60;;
1412;SDS011;701;52.526;13.408;2023-07-29T07:37:10;5.28;;;3.15;;
1412;SDS011;701;52.526;13.408;2023-07-29T07:39:36;8.10;;;3.27;;
1412;SDS011;701;52.526;13.408;2023-07-29T07:42:02;5.65;;;3.30;;
1412;SDS011;701;52.526;13.408;2023-07-29T07:44:27;7.28;;;3.60;;
1412;SDS011;701;52.526;13.408;2023-07-29T07:46:53;5.93;;;3.20;;
1412;SDS011;701;52.526;13.408;2023-07-29T07:49:19;5.95;;;3.22;;
1412;SDS011;701;52.526;13.408;2023-07-29T07:51:45;6.43;;;3.53;;
1412;SDS011;701;52.526;13.408;2023-07-29T07:54:10;5.70;;;3.20;;
1412;SDS011;701;52.526;13.408;2023-07-29T07:56:36;6.67;;;3.60;;
1412;SDS011;701;52.526;13.408;2023-07-29T07:59:02;7.15;;;3.55;;
1412;SDS011;701;52.526;13.408;2023-07-29T08:01:33;6.90;;;3.83;;
1412;SDS011;701;52.526;13.408;2023-07-29T08:04:00;8.23;;;3.40;;
1412;SDS011;701;52.526;13.408;2023-07-29T08:06:26;6.30;;;3.53;;
1412;SDS011;701;52.526;13.408;2023-07-29T08:08:52;7.35;;;3.63;;
1412;SDS011;701;52.526;13.408;2023-07-29T08:11:18;7.17;;;3.40;;
1412;SDS011;701;52.526;13.408;2023-07-29T08:13:43;5.65;;;3.67;;
1412;SDS011;701;52.526;13.408;2023-07-29T08:16:09;9.37;;;3.47;;
1412;SDS011;701;52.526;13.408;2023-07-29T08:18:35;6.07;;;3.38;;
1412;SDS011;701;52.526;13.408;2023-07-29T08:21:00;7.93;;;3.20;;
1412;SDS011;701;52.526;13.408;2023-07-29T08:23:30;7.97;;;3.35;;
1412;SDS011;701;52.526;13.408;2023-07-29T08:25:57;6.93;;;3.10;;
1412;SDS011;701;52.526;13.408;2023-07-29T08:28:27;6.47;;;2.80;;
1412;SDS011;701;52.526;13.408;2023-07-29T08:31:02;5.70;;;3.22;;
1412;SDS011;701;52.526;13.408;2023-07-29T08:33:29;7.73;;;2.73;;
1412;SDS011;701;52.526;13.408;2023-07-29T08:35:54;5.07;;;2.60;;
1412;SDS011;701;52.526;13.408;2023-07-29T08:38:20;5.30;;;2.80;;
1412;SDS011;701;52.526;13.408;2023-07-29T08:40:50;5.05;;;3.15;;
1412;SDS011;701;52.526;13.408;2023-07-29T08:43:24;5.23;;;2.67;;
1412;SDS011;701;52.526;13.408;2023-07-29T08:45:57;8.07;;;2.78;;
1412;SDS011;701;52.526;13.408;2023-07-29T08:48:28;4.90;;;2.70;;
1412;SDS011;701;52.526;13.408;2023-07-29T08:51:04;4.75;;;2.60;;
1412;SDS011;701;52.526;13.408;2023-07-29T08:53:32;6.60;;;2.38;;
1412;SDS011;701;52.526;13.408;2023-07-29T08:55:58;9.67;;;2.50;;
1412;SDS011;701;52.526;13.408;2023-07-29T08:58:25;5.20;;;2.65;;
1412;SDS011;701;52.526;13.408;2023-07-29T09:00:51;5.32;;;2.47;;
1412;SDS011;701;52.526;13.408;2023-07-29T09:03:17;4.63;;;2.60;;
1412;SDS011;701;52.526;13.408;2023-07-29T09:05:45;5.85;;;2.80;;
1412;SDS011;701;52.526;13.408;2023-07-29T09:08:11;4.83;;;2.70;;
1412;SDS011;701;52.526;13.408;2023-07-29T09:10:37;4.90;;;2.42;;
1412;SDS011;701;52.526;13.408;2023-07-29T09:13:03;5.88;;;2.65;;
1412;SDS011;701;52.526;13.408;2023-07-29T09:15:30;7.60;;;2.78;;
1412;SDS011;701;52.526;13.408;2023-07-29T09:17:57;4.97;;;2.22;;
1412;SDS011;701;52.526;13.408;2023-07-29T09:20:24;5.43;;;2.73;;
1412;SDS011;701;52.526;13.408;2023-07-29T09:22:51;6.07;;;2.80;;
1412;SDS011;701;52.526;13.408;2023-07-29T09:25:22;4.95;;;2.17;;
1412;SDS011;701;52.526;13.408;2023-07-29T09:27:49;6.75;;;2.50;;
1412;SDS011;701;52.526;13.408;2023-07-29T09:30:17;5.67;;;2.27;;
1412;SDS011;701;52.526;13.408;2023-07-29T09:32:43;5.22;;;2.30;;
1412;SDS011;701;52.526;13.408;2023-07-29T09:35:10;4.50;;;2.28;;
1412;SDS011;701;52.526;13.408;2023-07-29T09:37:37;6.22;;;2.50;;
1412;SDS011;701;52.526;13.408;2023-07-29T09:40:04;7.57;;;5.23;;
1412;SDS011;701;52.526;13.408;2023-07-29T09:42:31;6.30;;;2.65;;
1412;SDS011;701;52.526;13.408;2023-07-29T09:44:58;4.65;;;2.20;;
1412;SDS011;701;52.526;13.408;2023-07-29T09:47:24;4.95;;;2.30;;
1412;SDS011;701;52.526;13.408;2023-07-29T09:49:51;5.50;;;2.27;;
1412;SDS011;701;52.526;13.408;2023-07-29T09:52:18;4.90;;;2.25;;
1412;SDS011;701;52.526;13.408;2023-07-29T09:54:46;4.85;;;2.30;;
1412;SDS011;701;52.526;13.408;2023-07-29T09:57:16;7.50;;;2.78;;
1412;SDS011;701;52.526;13.408;2023-07-29T09:59:53;5.10;;;2.45;;
1412;SDS011;701;52.526;13.408;2023-07-29T10:02:20;6.97;;;2.13;;
1412;SDS011;701;52.526;13.408;2023-07-29T10:04:46;6.15;;;2.58;;
1412;SDS011;701;52.526;13.408;2023-07-29T10:07:12;4.78;;;2.20;;
1412;SDS011;701;52.526;13.408;2023-07-29T10:09:39;4.80;;;2.58;;
1412;SDS011;701;52.526;13.408;2023-07-29T10:12:06;5.53;;;2.30;;
1412;SDS011;701;52.526;13.408;2023-07-29T10:14:32;4.80;;;2.20;;
1412;SDS011;701;52.526;13.408;2023-07-29T10:16:59;5.00;;;2.40;;
1412;SDS011;701;52.526;13.408;2023-07-29T10:19:25;5.57;;;2.03;;
1412;SDS011;701;52.526;13.408;2023-07-29T10:21:52;5.10;;;2.70;;
1412;SDS011;701;52.526;13.408;2023-07-29T10:24:24;6.60;;;2.03;;
1412;SDS011;701;52.526;13.408;2023-07-29T10:26:55;4.43;;;2.17;;
1412;SDS011;701;52.526;13.408;2023-07-29T10:29:23;4.80;;;2.38;;
1412;SDS011;701;52.526;13.408;2023-07-29T10:31:53;4.63;;;2.17;;
1412;SDS011;701;52.526;13.408;2023-07-29T10:34:22;4.70;;;2.10;;
1412;SDS011;701;52.526;13.408;2023-07-29T10:36:49;5.43;;;2.50;;
1412;SDS011;701;52.526;13.408;2023-07-29T10:39:16;4.80;;;2.10;;
1412;SDS011;701;52.526;13.408;2023-07-29T10:42:01;8.73;;;2.10;;
1412;SDS011;701;52.526;13.408;2023-07-29T10:50:00;5.93;;;2.40;;
1412;SDS011;701;52.526;13.408;2023-07-29T10:52:30;5.28;;;1.90;;
1412;SDS011;701;52.526;13.408;2023-07-29T10:54:56;6.10;;;2.00;;
1412;SDS011;701;52.526;13.408;2023-07-29T10:57:32;8.40;;;2.27;;
1412;SDS011;701;52.526;13.408;2023-07-29T11:00:01;4.38;;;1.70;;
1412;SDS011;701;52.526;13.408;2023-07-29T11:02:29;4.00;;;1.80;;
1412;SDS011;701;52.526;13.408;2023-07-29T11:05:06;6.35;;;1.88;;
1412;SDS011;701;52.526;13.408;2023-07-29T11:07:43;8.60;;;1.80;;
1412;SDS011;701;52.526;13.408;2023-07-29T11:10:11;4.83;;;1.90;;
1412;SDS011;701;52.526;13.408;2023-07-29T11:12:47;4.38;;;1.73;;
1412;SDS011;701;52.526;13.408;2023-07-29T11:15:23;5.05;;;2.17;;
1412;SDS011;701;52.526;13.408;2023-07-29T11:17:54;6.65;;;2.90;;
1412;SDS011;701;52.526;13.408;2023-07-29T11:20:28;5.80;;;1.55;;
1412;SDS011;701;52.526;13.408;2023-07-29T11:22:56;6.87;;;1.20;;
1412;SDS011;701;52.526;13.408;2023-07-29T11:25:24;5.57;;;1.60;;
1412;SDS011;701;52.526;13.408;2023-07-29T11:27:52;5.63;;;1.13;;
1412;SDS011;701;52.526;13.408;2023-07-29T11:30:18;6.70;;;1.05;;
1412;SDS011;701;52.526;13.408;2023-07-29T11:32:45;3.50;;;1.13;;
1412;SDS011;701;52.526;13.408;2023-07-29T11:35:16;4.75;;;1.35;;
1412;SDS011;701;52.526;13.408;2023-07-29T11:37:44;4.05;;;1.10;;
1412;SDS011;701;52.526;13.408;2023-07-29T11:40:13;5.50;;;1.50;;
1412;SDS011;701;52.526;13.408;2023-07-29T11:42:40;4.85;;;1.67;;
1412;SDS011;701;52.526;13.408;2023-07-29T11:45:06;4.37;;;1.30;;
1412;SDS011;701;52.526;13.408;2023-07-29T11:47:33;4.05;;;1.20;;
1412;SDS011;701;52.526;13.408;2023-07-29T11:50:06;4.60;;;1.60;;
1412;SDS011;701;52.526;13.408;2023-07-29T11:52:34;7.97;;;2.03;;
1412;SDS011;701;52.526;13.408;2023-07-29T11:55:01;5.20;;;1.35;;
1412;SDS011;701;52.526;13.408;2023-07-29T11:57:29;4.83;;;1.20;;
1412;SDS011;701;52.526;13.408;2023-07-29T11:59:55;5.75;;;1.20;;
1412;SDS011;701;52.526;13.408;2023-07-29T12:02:21;5.20;;;1.27;;
1412;SDS011;701;52.526;13.408;2023-07-29T12:04:48;5.88;;;1.30;;
1412;SDS011;701;52.526;13.408;2023-07-29T12:07:16;5.45;;;1.40;;
1412;SDS011;701;52.526;13.408;2023-07-29T12:09:43;4.07;;;1.07;;
1412;SDS011;701;52.526;13.408;2023-07-29T12:12:11;4.57;;;1.25;;
1412;SDS011;701;52.526;13.408;2023-07-29T13:14:54;5.00;;;1.83;;
1412;SDS011;701;52.526;13.408;2023-07-29T13:17:20;4.80;;;1.93;;
1412;SDS011;701;52.526;13.408;2023-07-29T13:19:47;5.40;;;2.55;;
1412;SDS011;701;52.526;13.408;2023-07-29T13:22:13;7.70;;;2.30;;
1412;SDS011;701;52.526;13.408;2023-07-29T13:24:38;5.70;;;2.13;;
1412;SDS011;701;52.526;13.408;2023-07-29T13:27:04;5.68;;;2.10;;
1412;SDS011;701;52.526;13.408;2023-07-29T13:29:30;7.93;;;1.88;;
1412;SDS011;701;52.526;13.408;2023-07-29T13:31:56;5.17;;;2.00;;
1412;SDS011;701;52.526;13.408;2023-07-29T13:34:21;6.95;;;2.88;;
1412;SDS011;701;52.526;13.408;2023-07-29T13:36:47;6.50;;;2.00;;
1412;SDS011;701;52.526;13.408;2023-07-29T13:39:13;4.97;;;2.10;;
1412;SDS011;701;52.526;13.408;2023-07-29T13:41:39;4.07;;;1.80;;
1412;SDS011;701;52.526;13.408;2023-07-29T13:44:04;6.25;;;1.67;;
1412;SDS011;701;52.526;13.408;2023-07-29T13:46:30;6.47;;;1.90;;
1412;SDS011;701;52.526;13.408;2023-07-29T13:48:56;4.80;;;2.10;;
1412;SDS011;701;52.526;13.408;2023-07-29T13:51:22;6.82;;;1.90;;
1412;SDS011;701;52.526;13.408;2023-07-29T13:53:48;4.70;;;2.00;;
1412;SDS011;701;52.526;13.408;2023-07-29T13:56:14;4.90;;;1.90;;
1412;SDS011;701;52.526;13.408;2023-07-29T13:58:40;4.38;;;1.70;;
1412;SDS011;701;52.526;13.408;2023-07-29T14:01:05;5.17;;;2.30;;
1412;SDS011;701;52.526;13.408;2023-07-29T14:03:31;5.00;;;2.00;;
1412;SDS011;701;52.526;13.408;2023-07-29T14:05:57;4.03;;;1.50;;
1412;SDS011;701;52.526;13.408;2023-07-29T14:08:23;4.77;;;1.73;;
1412;SDS011;701;52.526;13.408;2023-07-29T14:10:49;4.40;;;1.67;;
1412;SDS011;701;52.526;13.408;2023-07-29T14:13:15;4.27;;;1.43;;
1412;SDS011;701;52.526;13.408;2023-07-29T14:15:40;4.05;;;1.40;;
1412;SDS011;701;52.526;13.408;2023-07-29T14:18:06;3.77;;;1.20;;
1412;SDS011;701;52.526;13.408;2023-07-29T14:20:32;3.80;;;1.40;;
1412;SDS011;701;52.526;13.408;2023-07-29T14:22:58;5.00;;;1.77;;
1412;SDS011;701;52.526;13.408;2023-07-29T14:25:24;4.00;;;1.60;;
1412;SDS011;701;52.526;13.408;2023-07-29T14:27:50;15.73;;;1.70;;
1412;SDS011;701;52.526;13.408;2023-07-29T14:30:16;4.88;;;1.45;;
1412;SDS011;701;52.526;13.408;2023-07-29T14:32:42;4.90;;;1.60;;
1412;SDS011;701;52.526;13.408;2023-07-29T14:35:08;3.83;;;1.43;;
1412;SDS011;701;52.526;13.408;2023-07-29T14:37:41;4.22;;;1.50;;
1412;SDS011;701;52.526;13.408;2023-07-29T19:15:13;7.53;;;3.50;;
1412;SDS011;701;52.526;13.408;2023-07-29T19:17:39;7.80;;;3.50;;
1412;SDS011;701;52.526;13.408;2023-07-29T19:20:05;7.10;;;3.00;;
1412;SDS011;701;52.526;13.408;2023-07-29T19:22:31;9.03;;;3.63;;
1412;SDS011;701;52.526;13.408;2023-07-29T19:24:57;7.90;;;3.90;;
1412;SDS011;701;52.526;13.408;2023-07-29T19:27:24;7.82;;;3.30;;
1412;SDS011;701;52.526;13.408;2023-07-29T19:29:50;11.07;;;3.20;;
1412;SDS011;701;52.526;13.408;2023-07-29T19:32:15;8.45;;;3.28;;
1412;SDS011;701;52.526;13.408;2023-07-29T19:34:41;7.90;;;3.30;;
1412;SDS011;701;52.526;13.408;2023-07-29T19:37:09;7.63;;;3.50;;
1412;SDS011;701;52.526;13.408;2023-07-29T19:39:39;8.23;;;4.20;;
1412;SDS011;701;52.526;13.408;2023-07-29T19:42:05;7.65;;;3.92;;
1412;SDS011;701;52.526;13.408;2023-07-29T19:44:31;9.13;;;4.68;;
1412;SDS011;701;52.526;13.408;2023-07-29T19:46:59;8.98;;;4.10;;
1412;SDS011;701;52.526;13.408;2023-07-29T19:49:25;6.33;;;3.30;;
1412;SDS011;701;52.526;13.408;2023-07-29T19:51:51;9.27;;;3.80;;
1412;SDS011;701;52.526;13.408;2023-07-29T19:54:18;10.40;;;3.97;;
1412;SDS011;701;52.526;13.408;2023-07-29T19:56:44;7.03;;;3.30;;
1412;SDS011;701;52.526;13.408;2023-07-29T19:59:10;8.15;;;3.80;;
1412;SDS011;701;52.526;13.408;2023-07-29T20:01:35;7.70;;;3.90;;
1412;SDS011;701;52.526;13.408;2023-07-29T20:04:01;7.70;;;3.60;;
1412;SDS011;701;52.526;13.408;2023-07-29T20:06:27;8.17;;;3.47;;
1412;SDS011;701;52.526;13.408;2023-07-29T20:08:53;8.73;;;3.85;;
1412;SDS011;701;52.526;13.408;2023-07-29T20:11:18;8.48;;;3.70;;
1412;SDS011;701;52.526;13.408;2023-07-29T20:13:44;7.40;;;3.73;;
1412;SDS011;701;52.526;13.408;2023-07-29T20:16:10;7.25;;;3.55;;
1412;SDS011;701;52.526;13.408;2023-07-29T20:18:36;7.20;;;3.77;;
1412;SDS011;701;52.526;13.408;2023-07-29T20:21:01;8.02;;;4.22;;
1412;SDS011;701;52.526;13.408;2023-07-29T20:23:27;11.57;;;4.00;;
1412;SDS011;701;52.526;13.408;2023-07-29T20:25:53;8.02;;;3.88;;
1412;SDS011;701;52.526;13.408;2023-07-29T20:28:18;7.80;;;3.93;;
1412;SDS011;701;52.526;13.408;2023-07-29T20:30:50;9.13;;;4.40;;
1412;SDS011;701;52.526;13.408;2023-07-29T20:33:20;10.13;;;4.10;;
1412;SDS011;701;52.526;13.408;2023-07-29T20:35:52;12.10;;;5.77;;
1412;SDS011;701;52.526;13.408;2023-07-29T20:38:18;11.32;;;5.05;;
1412;SDS011;701;52.526;13.408;2023-07-29T20:40:54;7.97;;;4.43;;
1412;SDS011;701;52.526;13.408;2023-07-29T20:43:21;9.33;;;4.17;;
1412;SDS011;701;52.526;13.408;2023-07-29T20:45:48;11.90;;;4.70;;
1412;SDS011;701;52.526;13.408;2023-07-29T20:48:14;9.85;;;4.20;;
1412;SDS011;701;52.526;13.408;2023-07-29T20:50:40;7.95;;;4.15;;
1412;SDS011;701;52.526;13.408;2023-07-29T20:53:07;7.55;;;4.25;;
1412;SDS011;701;52.526;13.408;2023-07-29T20:55:34;11.13;;;4.13;;